sensor_id;sensor_type;location;lat;lon;timestamp;temperature;humidity
21805;DHT22;11064;47.102;15.452;2023-05-18T04:03:35;8.80;99.90
21805;DHT22;11064;47.102;15.452;2023-05-18T04:06:00;8.80;99.90
21805;DHT22;11064;47.102;15.452;2023-05-18T04:08:26;8.70;99.90
21805;DHT22;11064;47.102;15.452;2023-05-18T04:10:55;8.70;99.90
21805;DHT22;11064;47.102;15.452;2023-05-18T04:13:21;8.80;99.90
21805;DHT22;11064;47.102;15.452;2023-05-18T04:15:47;8.80;99.90
21805;DHT22;11064;47.102;15.452;2023-05-18T04:18:13;8.80;99.90
21805;DHT22;11064;47.102;15.452;2023-05-18T04:20:39;8.90;99.90
21805;DHT22;11064;47.102;15.452;2023-05-18T04:23:06;8.90;99.90
21805;DHT22;11064;47.102;15.452;2023-05-18T04:25:34;8.90;99.90
21805;DHT22;11064;47.102;15.452;2023-05-18T04:28:00;9.00;99.90
21805;DHT22;11064;47.102;15.452;2023-05-18T04:30:27;9.00;99.90
21805;DHT22;11064;47.102;15.452;2023-05-18T04:32:54;9.10;99.90
21805;DHT22;11064;47.102;15.452;2023-05-18T04:35:22;9.20;99.90
21805;DHT22;11064;47.102;15.452;2023-05-18T04:37:50;9.30;99.90
21805;DHT22;11064;47.102;15.452;2023-05-18T04:40:16;9.40;99.90
21805;DHT22;11064;47.102;15.452;2023-05-18T04:42:45;9.50;99.90
21805;DHT22;11064;47.102;15.452;2023-05-18T04:45:16;9.70;99.90
21805;DHT22;11064;47.102;15.452;2023-05-18T04:47:48;9.80;99.90
21805;DHT22;11064;47.102;15.452;2023-05-18T04:50:19;10.10;99.90
21805;DHT22;11064;47.102;15.452;2023-05-18T04:52:47;10.40;99.90
21805;DHT22;11064;47.102;15.452;2023-05-18T04:55:17;10.70;99.90
21805;DHT22;11064;47.102;15.452;2023-05-18T04:57:48;11.00;99.90
21805;DHT22;11064;47.102;15.452;2023-05-18T05:00:16;11.30;99.90
21805;DHT22;11064;47.102;15.452;2023-05-18T05:02:42;11.50;99.90
21805;DHT22;11064;47.102;15.452;2023-05-18T05:05:08;11.60;99.90
21805;DHT22;11064;47.102;15.452;2023-05-18T05:07:34;11.80;99.90
21805;DHT22;11064;47.102;15.452;2023-05-18T05:10:00;11.90;99.90
21805;DHT22;11064;47.102;15.452;2023-05-18T05:12:26;12.10;99.90
21805;DHT22;11064;47.102;15.452;2023-05-18T05:14:51;12.30;99.90
21805;DHT22;11064;47.102;15.452;2023-05-18T05:17:17;12.50;99.90
21805;DHT22;11064;47.102;15.452;2023-05-18T05:19:44;12.70;99.90
21805;DHT22;11064;47.102;15.452;2023-05-18T05:22:10;12.70;99.00
21805;DHT22;11064;47.102;15.452;2023-05-18T05:24:36;12.80;98.50
21805;DHT22;11064;47.102;15.452;2023-05-18T05:27:02;13.00;98.20
21805;DHT22;11064;47.102;15.452;2023-05-18T05:29:27;13.20;95.60
21805;DHT22;11064;47.102;15.452;2023-05-18T05:31:53;13.30;94.80
21805;DHT22;11064;47.102;15.452;2023-05-18T05:34:19;13.40;94.80
21805;DHT22;11064;47.102;15.452;2023-05-18T05:36:44;13.20;94.30
21805;DHT22;11064;47.102;15.452;2023-05-18T05:39:10;13.60;94.00
21805;DHT22;11064;47.102;15.452;2023-05-18T05:41:38;14.00;93.60
21805;DHT22;11064;47.102;15.452;2023-05-18T05:44:04;14.30;93.50
21805;DHT22;11064;47.102;15.452;2023-05-18T05:46:29;14.50;93.10
21805;DHT22;11064;47.102;15.452;2023-05-18T05:48:55;14.60;94.00
21805;DHT22;11064;47.102;15.452;2023-05-18T05:51:21;14.50;91.70
21805;DHT22;11064;47.102;15.452;2023-05-18T05:53:47;15.00;92.00
21805;DHT22;11064;47.102;15.452;2023-05-18T05:56:14;15.00;91.10
21805;DHT22;11064;47.102;15.452;2023-05-18T05:58:40;15.20;90.40
21805;DHT22;11064;47.102;15.452;2023-05-18T06:01:06;15.30;91.20
21805;DHT22;11064;47.102;15.452;2023-05-18T06:03:33;15.10;89.70
21805;DHT22;11064;47.102;15.452;2023-05-18T06:05:59;15.30;89.50
21805;DHT22;11064;47.102;15.452;2023-05-18T06:08:25;15.10;88.50
21805;DHT22;11064;47.102;15.452;2023-05-18T06:10:51;15.00;89.00
21805;DHT22;11064;47.102;15.452;2023-05-18T06:13:16;15.30;89.40
21805;DHT22;11064;47.102;15.452;2023-05-18T06:15:42;16.00;87.30
21805;DHT22;11064;47.102;15.452;2023-05-18T06:18:08;16.90;83.10
21805;DHT22;11064;47.102;15.452;2023-05-18T06:20:34;17.10;82.30
21805;DHT22;11064;47.102;15.452;2023-05-18T06:23:00;17.30;80.80
21805;DHT22;11064;47.102;15.452;2023-05-18T06:25:25;16.70;80.10
21805;DHT22;11064;47.102;15.452;2023-05-18T06:27:51;17.20;77.50
21805;DHT22;11064;47.102;15.452;2023-05-18T06:30:17;16.90;77.00
21805;DHT22;11064;47.102;15.452;2023-05-18T06:32:43;16.60;79.20
21805;DHT22;11064;47.102;15.452;2023-05-18T06:35:09;16.40;78.50
21805;DHT22;11064;47.102;15.452;2023-05-18T06:37:35;16.60;79.40
21805;DHT22;11064;47.102;15.452;2023-05-18T06:40:01;16.90;77.90
21805;DHT22;11064;47.102;15.452;2023-05-18T06:42:26;16.60;78.40
21805;DHT22;11064;47.102;15.452;2023-05-18T06:44:52;16.60;81.60
21805;DHT22;11064;47.102;15.452;2023-05-18T06:47:18;16.70;81.70
21805;DHT22;11064;47.102;15.452;2023-05-18T06:49:44;16.60;78.90
21805;DHT22;11064;47.102;15.452;2023-05-18T06:52:09;16.50;76.00
21805;DHT22;11064;47.102;15.452;2023-05-18T06:54:36;16.00;79.30
21805;DHT22;11064;47.102;15.452;2023-05-18T06:57:01;15.60;79.80
21805;DHT22;11064;47.102;15.452;2023-05-18T06:59:27;15.60;80.50
21805;DHT22;11064;47.102;15.452;2023-05-18T07:01:53;15.30;81.30
21805;DHT22;11064;47.102;15.452;2023-05-18T07:04:18;14.90;82.00
21805;DHT22;11064;47.102;15.452;2023-05-18T07:06:45;14.70;83.10
21805;DHT22;11064;47.102;15.452;2023-05-18T07:09:11;14.90;87.20
21805;DHT22;11064;47.102;15.452;2023-05-18T07:11:37;15.10;82.40
21805;DHT22;11064;47.102;15.452;2023-05-18T07:14:05;15.60;84.40
21805;DHT22;11064;47.102;15.452;2023-05-18T07:16:31;15.10;84.50
21805;DHT22;11064;47.102;15.452;2023-05-18T07:18:57;15.20;82.10
21805;DHT22;11064;47.102;15.452;2023-05-18T07:21:25;15.30;83.40
21805;DHT22;11064;47.102;15.452;2023-05-18T07:23:51;15.70;84.20
21805;DHT22;11064;47.102;15.452;2023-05-18T07:26:18;15.40;81.60
21805;DHT22;11064;47.102;15.452;2023-05-18T07:28:44;15.30;83.70
21805;DHT22;11064;47.102;15.452;2023-05-18T07:31:10;15.90;82.50
21805;DHT22;11064;47.102;15.452;2023-05-18T07:33:35;16.50;82.10
21805;DHT22;11064;47.102;15.452;2023-05-18T07:36:01;16.80;80.50
21805;DHT22;11064;47.102;15.452;2023-05-18T07:38:27;17.50;79.90
21805;DHT22;11064;47.102;15.452;2023-05-18T07:40:53;17.30;75.00
21805;DHT22;11064;47.102;15.452;2023-05-18T07:43:18;17.60;76.10
21805;DHT22;11064;47.102;15.452;2023-05-18T07:45:44;18.20;75.80
21805;DHT22;11064;47.102;15.452;2023-05-18T07:48:10;18.30;71.60
21805;DHT22;11064;47.102;15.452;2023-05-18T07:50:36;18.30;70.80
21805;DHT22;11064;47.102;15.452;2023-05-18T07:53:02;18.70;69.30
21805;DHT22;11064;47.102;15.452;2023-05-18T07:55:27;19.30;68.00
21805;DHT22;11064;47.102;15.452;2023-05-18T07:57:53;19.70;68.30
21805;DHT22;11064;47.102;15.452;2023-05-18T08:00:19;19.60;68.00
21805;DHT22;11064;47.102;15.452;2023-05-18T08:02:45;19.30;67.40
21805;DHT22;11064;47.102;15.452;2023-05-18T08:05:11;19.30;68.20
21805;DHT22;11064;47.102;15.452;2023-05-18T08:07:37;19.20;72.00
21805;DHT22;11064;47.102;15.452;2023-05-18T08:10:03;19.10;71.70
21805;DHT22;11064;47.102;15.452;2023-05-18T08:12:29;19.00;68.60
21805;DHT22;11064;47.102;15.452;2023-05-18T08:14:55;18.80;66.50
21805;DHT22;11064;47.102;15.452;2023-05-18T08:17:21;18.60;66.30
21805;DHT22;11064;47.102;15.452;2023-05-18T08:19:47;18.30;68.30
21805;DHT22;11064;47.102;15.452;2023-05-18T08:22:14;18.40;66.90
21805;DHT22;11064;47.102;15.452;2023-05-18T08:24:40;18.70;66.90
21805;DHT22;11064;47.102;15.452;2023-05-18T08:27:06;18.60;65.90
21805;DHT22;11064;47.102;15.452;2023-05-18T08:29:34;18.40;70.00
21805;DHT22;11064;47.102;15.452;2023-05-18T08:32:00;18.20;65.70
21805;DHT22;11064;47.102;15.452;2023-05-18T08:34:26;18.80;69.80
21805;DHT22;11064;47.102;15.452;2023-05-18T08:36:51;18.80;66.10
21805;DHT22;11064;47.102;15.452;2023-05-18T08:39:17;19.40;66.90
21805;DHT22;11064;47.102;15.452;2023-05-18T08:44:37;20.30;60.10
21805;DHT22;11064;47.102;15.452;2023-05-18T08:47:08;19.10;61.40
21805;DHT22;11064;47.102;15.452;2023-05-18T08:49:39;19.50;62.80
21805;DHT22;11064;47.102;15.452;2023-05-18T08:52:07;19.90;61.50
21805;DHT22;11064;47.102;15.452;2023-05-18T08:54:35;20.60;59.90
21805;DHT22;11064;47.102;15.452;2023-05-18T08:57:04;20.40;59.10
21805;DHT22;11064;47.102;15.452;2023-05-18T08:59:35;20.50;61.70
21805;DHT22;11064;47.102;15.452;2023-05-18T09:02:03;20.40;64.20
21805;DHT22;11064;47.102;15.452;2023-05-18T09:04:31;20.90;59.90
21805;DHT22;11064;47.102;15.452;2023-05-18T09:07:01;21.30;63.10
21805;DHT22;11064;47.102;15.452;2023-05-18T09:09:28;21.50;59.70
21805;DHT22;11064;47.102;15.452;2023-05-18T09:11:55;20.90;56.90
21805;DHT22;11064;47.102;15.452;2023-05-18T09:14:21;21.50;59.10
21805;DHT22;11064;47.102;15.452;2023-05-18T09:16:53;21.80;60.90
21805;DHT22;11064;47.102;15.452;2023-05-18T09:19:19;21.90;56.60
21805;DHT22;11064;47.102;15.452;2023-05-18T09:21:46;22.00;56.20
21805;DHT22;11064;47.102;15.452;2023-05-18T09:24:11;21.80;55.80
21805;DHT22;11064;47.102;15.452;2023-05-18T09:26:38;22.00;57.10
21805;DHT22;11064;47.102;15.452;2023-05-18T09:29:18;21.80;55.30
21805;DHT22;11064;47.102;15.452;2023-05-18T09:31:45;22.00;58.30
21805;DHT22;11064;47.102;15.452;2023-05-18T09:34:15;22.10;55.90
21805;DHT22;11064;47.102;15.452;2023-05-18T09:36:49;21.90;55.60
21805;DHT22;11064;47.102;15.452;2023-05-18T09:39:17;21.80;54.80
21805;DHT22;11064;47.102;15.452;2023-05-18T09:41:43;22.10;53.80
21805;DHT22;11064;47.102;15.452;2023-05-18T09:44:09;22.40;54.60
21805;DHT22;11064;47.102;15.452;2023-05-18T09:46:37;22.00;55.00
21805;DHT22;11064;47.102;15.452;2023-05-18T09:49:04;21.90;55.00
21805;DHT22;11064;47.102;15.452;2023-05-18T09:51:38;22.40;57.50
21805;DHT22;11064;47.102;15.452;2023-05-18T09:54:06;22.40;55.10
21805;DHT22;11064;47.102;15.452;2023-05-18T09:56:35;22.30;54.70
21805;DHT22;11064;47.102;15.452;2023-05-18T09:59:12;23.10;56.60
21805;DHT22;11064;47.102;15.452;2023-05-18T10:02:00;22.70;53.60
21805;DHT22;11064;47.102;15.452;2023-05-18T10:04:40;22.80;52.10
21805;DHT22;11064;47.102;15.452;2023-05-18T10:07:16;23.20;52.90
21805;DHT22;11064;47.102;15.452;2023-05-18T10:09:43;22.90;56.40
21805;DHT22;11064;47.102;15.452;2023-05-18T10:12:14;23.50;52.70
21805;DHT22;11064;47.102;15.452;2023-05-18T10:14:42;23.80;54.50
21805;DHT22;11064;47.102;15.452;2023-05-18T10:17:10;23.70;51.70
21805;DHT22;11064;47.102;15.452;2023-05-18T10:19:37;23.10;55.90
21805;DHT22;11064;47.102;15.452;2023-05-18T10:22:05;22.80;53.60
21805;DHT22;11064;47.102;15.452;2023-05-18T10:24:38;22.00;55.50
21805;DHT22;11064;47.102;15.452;2023-05-18T10:27:08;22.00;54.50
21805;DHT22;11064;47.102;15.452;2023-05-18T10:29:37;21.60;56.90
21805;DHT22;11064;47.102;15.452;2023-05-18T10:32:04;22.10;57.00
21805;DHT22;11064;47.102;15.452;2023-05-18T10:34:34;22.50;56.30
21805;DHT22;11064;47.102;15.452;2023-05-18T10:37:01;22.70;55.60
21805;DHT22;11064;47.102;15.452;2023-05-18T10:39:30;22.60;56.60
21805;DHT22;11064;47.102;15.452;2023-05-18T10:41:58;23.10;57.40
21805;DHT22;11064;47.102;15.452;2023-05-18T10:44:25;22.60;53.70
21805;DHT22;11064;47.102;15.452;2023-05-18T10:46:52;23.40;56.80
21805;DHT22;11064;47.102;15.452;2023-05-18T10:49:20;23.00;55.70
21805;DHT22;11064;47.102;15.452;2023-05-18T10:51:52;23.00;54.60
21805;DHT22;11064;47.102;15.452;2023-05-18T10:54:20;22.70;56.50
21805;DHT22;11064;47.102;15.452;2023-05-18T10:56:51;22.90;55.30
21805;DHT22;11064;47.102;15.452;2023-05-18T10:59:19;22.90;53.90
21805;DHT22;11064;47.102;15.452;2023-05-18T11:01:46;22.60;52.10
21805;DHT22;11064;47.102;15.452;2023-05-18T11:04:13;21.80;54.50
21805;DHT22;11064;47.102;15.452;2023-05-18T11:06:39;21.30;57.70
21805;DHT22;11064;47.102;15.452;2023-05-18T11:09:05;21.90;58.10
21805;DHT22;11064;47.102;15.452;2023-05-18T11:11:53;21.80;54.90
21805;DHT22;11064;47.102;15.452;2023-05-18T11:14:25;21.90;55.80
21805;DHT22;11064;47.102;15.452;2023-05-18T11:16:52;22.00;55.10
21805;DHT22;11064;47.102;15.452;2023-05-18T11:19:18;21.70;57.50
21805;DHT22;11064;47.102;15.452;2023-05-18T11:21:50;20.80;54.90
21805;DHT22;11064;47.102;15.452;2023-05-18T11:24:25;20.40;57.30
21805;DHT22;11064;47.102;15.452;2023-05-18T11:26:59;20.50;58.10
21805;DHT22;11064;47.102;15.452;2023-05-18T11:29:35;20.70;58.30
21805;DHT22;11064;47.102;15.452;2023-05-18T11:32:02;20.70;59.80
21805;DHT22;11064;47.102;15.452;2023-05-18T11:37:03;21.30;58.50
21805;DHT22;11064;47.102;15.452;2023-05-18T11:39:31;21.20;60.50
21805;DHT22;11064;47.102;15.452;2023-05-18T11:42:04;21.30;57.10
21805;DHT22;11064;47.102;15.452;2023-05-18T11:44:30;21.20;56.40
21805;DHT22;11064;47.102;15.452;2023-05-18T11:49:44;22.10;59.30
21805;DHT22;11064;47.102;15.452;2023-05-18T11:52:14;22.10;55.40
21805;DHT22;11064;47.102;15.452;2023-05-18T11:54:54;22.20;54.90
21805;DHT22;11064;47.102;15.452;2023-05-18T11:57:24;22.10;58.80
21805;DHT22;11064;47.102;15.452;2023-05-18T11:59:55;22.20;60.60
21805;DHT22;11064;47.102;15.452;2023-05-18T12:02:34;22.00;55.60
21805;DHT22;11064;47.102;15.452;2023-05-18T12:05:01;21.60;56.90
21805;DHT22;11064;47.102;15.452;2023-05-18T12:07:31;20.90;57.80
21805;DHT22;11064;47.102;15.452;2023-05-18T12:10:01;20.60;62.50
21805;DHT22;11064;47.102;15.452;2023-05-18T12:12:27;20.30;61.80
21805;DHT22;11064;47.102;15.452;2023-05-18T12:14:58;20.10;60.50
21805;DHT22;11064;47.102;15.452;2023-05-18T12:17:43;20.00;63.80
21805;DHT22;11064;47.102;15.452;2023-05-18T12:20:22;20.00;63.40
21805;DHT22;11064;47.102;15.452;2023-05-18T12:22:54;19.60;65.40
21805;DHT22;11064;47.102;15.452;2023-05-18T12:25:22;19.40;66.70
21805;DHT22;11064;47.102;15.452;2023-05-18T12:27:49;19.30;68.40
21805;DHT22;11064;47.102;15.452;2023-05-18T12:30:18;19.20;68.60
21805;DHT22;11064;47.102;15.452;2023-05-18T12:32:55;19.40;68.00
21805;DHT22;11064;47.102;15.452;2023-05-18T12:35:26;19.40;68.20
21805;DHT22;11064;47.102;15.452;2023-05-18T12:37:52;19.80;69.00
21805;DHT22;11064;47.102;15.452;2023-05-18T12:40:24;19.90;68.60
21805;DHT22;11064;47.102;15.452;2023-05-18T12:42:58;19.50;70.70
21805;DHT22;11064;47.102;15.452;2023-05-18T12:45:31;19.60;70.50
21805;DHT22;11064;47.102;15.452;2023-05-18T12:48:08;19.60;72.50
21805;DHT22;11064;47.102;15.452;2023-05-18T12:50:34;19.70;73.40
21805;DHT22;11064;47.102;15.452;2023-05-18T12:53:02;19.70;71.30
21805;DHT22;11064;47.102;15.452;2023-05-18T12:55:29;19.60;72.40
21805;DHT22;11064;47.102;15.452;2023-05-18T12:57:59;19.40;72.60
21805;DHT22;11064;47.102;15.452;2023-05-18T13:00:33;19.50;73.50
21805;DHT22;11064;47.102;15.452;2023-05-18T13:03:13;19.00;72.80
21805;DHT22;11064;47.102;15.452;2023-05-18T13:05:40;19.00;74.90
21805;DHT22;11064;47.102;15.452;2023-05-18T13:08:07;19.20;75.00
21805;DHT22;11064;47.102;15.452;2023-05-18T13:10:34;19.00;72.50
21805;DHT22;11064;47.102;15.452;2023-05-18T13:13:00;18.70;73.70
21805;DHT22;11064;47.102;15.452;2023-05-18T13:15:38;18.40;76.10
21805;DHT22;11064;47.102;15.452;2023-05-18T13:18:06;18.50;77.80
21805;DHT22;11064;47.102;15.452;2023-05-18T13:20:44;18.80;77.80
21805;DHT22;11064;47.102;15.452;2023-05-18T13:23:14;18.50;75.80
21805;DHT22;11064;47.102;15.452;2023-05-18T13:25:41;18.50;77.30
21805;DHT22;11064;47.102;15.452;2023-05-18T13:28:08;18.50;74.80
21805;DHT22;11064;47.102;15.452;2023-05-18T13:30:38;18.80;76.30
21805;DHT22;11064;47.102;15.452;2023-05-18T13:33:05;18.90;75.60
21805;DHT22;11064;47.102;15.452;2023-05-18T13:35:38;19.00;76.50
21805;DHT22;11064;47.102;15.452;2023-05-18T13:38:10;19.50;75.90
21805;DHT22;11064;47.102;15.452;2023-05-18T13:40:37;19.90;75.10
21805;DHT22;11064;47.102;15.452;2023-05-18T13:43:02;20.30;72.70
21805;DHT22;11064;47.102;15.452;2023-05-18T13:45:31;20.70;71.70
21805;DHT22;11064;47.102;15.452;2023-05-18T13:47:57;20.40;71.60
21805;DHT22;11064;47.102;15.452;2023-05-18T13:50:24;20.70;70.10
21805;DHT22;11064;47.102;15.452;2023-05-18T13:52:51;20.70;70.00
21805;DHT22;11064;47.102;15.452;2023-05-18T13:55:17;20.50;72.70
21805;DHT22;11064;47.102;15.452;2023-05-18T13:57:43;20.20;72.80
21805;DHT22;11064;47.102;15.452;2023-05-18T14:00:09;19.80;72.80
21805;DHT22;11064;47.102;15.452;2023-05-18T14:02:42;19.70;74.00
21805;DHT22;11064;47.102;15.452;2023-05-18T14:05:12;19.60;74.20
21805;DHT22;11064;47.102;15.452;2023-05-18T14:07:42;19.40;75.50
21805;DHT22;11064;47.102;15.452;2023-05-18T14:10:09;19.10;75.80
21805;DHT22;11064;47.102;15.452;2023-05-18T14:12:36;18.90;78.70
21805;DHT22;11064;47.102;15.452;2023-05-18T14:15:02;18.70;80.50
21805;DHT22;11064;47.102;15.452;2023-05-18T14:17:29;18.40;81.20
21805;DHT22;11064;47.102;15.452;2023-05-18T14:19:58;18.30;81.20
21805;DHT22;11064;47.102;15.452;2023-05-18T14:22:24;18.10;80.60
21805;DHT22;11064;47.102;15.452;2023-05-18T14:24:51;18.00;80.50
21805;DHT22;11064;47.102;15.452;2023-05-18T14:27:18;17.80;81.10
21805;DHT22;11064;47.102;15.452;2023-05-18T14:29:45;17.40;83.80
21805;DHT22;11064;47.102;15.452;2023-05-18T14:32:11;17.20;84.20
21805;DHT22;11064;47.102;15.452;2023-05-18T14:34:37;17.20;86.50
21805;DHT22;11064;47.102;15.452;2023-05-18T14:37:03;17.00;85.40
21805;DHT22;11064;47.102;15.452;2023-05-18T14:39:29;17.00;86.40
21805;DHT22;11064;47.102;15.452;2023-05-18T14:41:55;17.10;86.70
21805;DHT22;11064;47.102;15.452;2023-05-18T14:44:21;16.90;86.90
21805;DHT22;11064;47.102;15.452;2023-05-18T14:46:47;16.80;87.50
21805;DHT22;11064;47.102;15.452;2023-05-18T14:49:13;16.70;86.50
21805;DHT22;11064;47.102;15.452;2023-05-18T14:51:39;16.30;85.90
21805;DHT22;11064;47.102;15.452;2023-05-18T14:54:04;16.30;86.90
21805;DHT22;11064;47.102;15.452;2023-05-18T14:56:30;16.30;88.40
21805;DHT22;11064;47.102;15.452;2023-05-18T14:58:56;16.50;86.50
21805;DHT22;11064;47.102;15.452;2023-05-18T15:01:22;16.50;88.50
21805;DHT22;11064;47.102;15.452;2023-05-18T15:03:48;16.30;86.50
21805;DHT22;11064;47.102;15.452;2023-05-18T15:06:13;16.30;86.40
21805;DHT22;11064;47.102;15.452;2023-05-18T15:08:39;16.30;87.50
21805;DHT22;11064;47.102;15.452;2023-05-18T15:11:05;16.40;86.00
21805;DHT22;11064;47.102;15.452;2023-05-18T15:13:31;16.40;85.70
21805;DHT22;11064;47.102;15.452;2023-05-18T15:15:57;16.30;84.90
21805;DHT22;11064;47.102;15.452;2023-05-18T15:18:23;16.30;85.00
21805;DHT22;11064;47.102;15.452;2023-05-18T15:20:49;16.50;86.80
21805;DHT22;11064;47.102;15.452;2023-05-18T15:23:14;16.60;85.20
21805;DHT22;11064;47.102;15.452;2023-05-18T15:25:41;16.70;85.30
21805;DHT22;11064;47.102;15.452;2023-05-18T15:28:07;16.90;85.70
21805;DHT22;11064;47.102;15.452;2023-05-18T15:30:33;17.00;85.60
21805;DHT22;11064;47.102;15.452;2023-05-18T15:32:59;17.10;82.80
21805;DHT22;11064;47.102;15.452;2023-05-18T15:35:28;16.90;85.20
21805;DHT22;11064;47.102;15.452;2023-05-18T15:37:54;16.50;84.30
21805;DHT22;11064;47.102;15.452;2023-05-18T15:40:20;16.50;86.00
21805;DHT22;11064;47.102;15.452;2023-05-18T15:42:46;16.60;84.40
21805;DHT22;11064;47.102;15.452;2023-05-18T15:45:12;16.40;85.40
21805;DHT22;11064;47.102;15.452;2023-05-18T15:47:38;16.50;88.00
21805;DHT22;11064;47.102;15.452;2023-05-18T15:50:04;16.60;87.70
21805;DHT22;11064;47.102;15.452;2023-05-18T15:52:30;16.60;86.80
21805;DHT22;11064;47.102;15.452;2023-05-18T15:54:56;16.80;87.80
21805;DHT22;11064;47.102;15.452;2023-05-18T15:57:23;16.90;84.90
21805;DHT22;11064;47.102;15.452;2023-05-18T15:59:49;16.70;85.00
21805;DHT22;11064;47.102;15.452;2023-05-18T16:02:15;16.50;85.60
21805;DHT22;11064;47.102;15.452;2023-05-18T16:04:41;16.50;87.90
21805;DHT22;11064;47.102;15.452;2023-05-18T16:07:07;16.40;87.00
21805;DHT22;11064;47.102;15.452;2023-05-18T16:09:32;15.90;89.10
21805;DHT22;11064;47.102;15.452;2023-05-18T16:11:58;15.80;90.70
21805;DHT22;11064;47.102;15.452;2023-05-18T16:14:24;15.90;90.60
21805;DHT22;11064;47.102;15.452;2023-05-18T16:16:50;15.70;89.40
21805;DHT22;11064;47.102;15.452;2023-05-18T16:19:16;15.50;91.10
21805;DHT22;11064;47.102;15.452;2023-05-18T16:21:43;15.40;90.90
21805;DHT22;11064;47.102;15.452;2023-05-18T16:24:09;15.40;91.10
21805;DHT22;11064;47.102;15.452;2023-05-18T16:26:35;15.50;91.20
21805;DHT22;11064;47.102;15.452;2023-05-18T16:29:01;15.50;91.10
21805;DHT22;11064;47.102;15.452;2023-05-18T16:31:30;15.60;90.70
21805;DHT22;11064;47.102;15.452;2023-05-18T16:33:56;15.60;91.40
21805;DHT22;11064;47.102;15.452;2023-05-18T16:36:22;15.40;90.70
21805;DHT22;11064;47.102;15.452;2023-05-18T16:38:51;15.50;91.50
21805;DHT22;11064;47.102;15.452;2023-05-18T16:41:17;15.50;91.70
21805;DHT22;11064;47.102;15.452;2023-05-18T16:43:43;15.50;92.00
21805;DHT22;11064;47.102;15.452;2023-05-18T16:46:12;15.50;90.70
21805;DHT22;11064;47.102;15.452;2023-05-18T16:48:37;15.30;91.60
21805;DHT22;11064;47.102;15.452;2023-05-18T16:51:03;15.20;92.00
21805;DHT22;11064;47.102;15.452;2023-05-18T16:53:33;15.30;92.70
21805;DHT22;11064;47.102;15.452;2023-05-18T16:55:59;15.30;93.00
21805;DHT22;11064;47.102;15.452;2023-05-18T16:58:25;15.10;92.70
21805;DHT22;11064;47.102;15.452;2023-05-18T17:00:51;14.80;93.70
21805;DHT22;11064;47.102;15.452;2023-05-18T17:03:18;14.60;94.00
21805;DHT22;11064;47.102;15.452;2023-05-18T17:05:44;14.40;94.90
21805;DHT22;11064;47.102;15.452;2023-05-18T17:08:10;14.30;95.60
21805;DHT22;11064;47.102;15.452;2023-05-18T17:10:36;14.30;95.80
21805;DHT22;11064;47.102;15.452;2023-05-18T17:13:02;14.30;96.90
21805;DHT22;11064;47.102;15.452;2023-05-18T17:15:29;14.20;97.40
21805;DHT22;11064;47.102;15.452;2023-05-18T17:17:55;14.10;97.90
21805;DHT22;11064;47.102;15.452;2023-05-18T17:20:21;14.00;99.00
21805;DHT22;11064;47.102;15.452;2023-05-18T17:22:46;14.10;99.10
21805;DHT22;11064;47.102;15.452;2023-05-18T17:25:12;14.10;99.70
21805;DHT22;11064;47.102;15.452;2023-05-18T17:27:38;14.10;99.80
21805;DHT22;11064;47.102;15.452;2023-05-18T17:30:05;14.10;99.90
21805;DHT22;11064;47.102;15.452;2023-05-18T17:32:31;14.10;99.90
21805;DHT22;11064;47.102;15.452;2023-05-18T17:34:56;14.10;99.90
21805;DHT22;11064;47.102;15.452;2023-05-18T17:37:22;14.00;99.90
21805;DHT22;11064;47.102;15.452;2023-05-18T17:39:48;13.90;99.90
21805;DHT22;11064;47.102;15.452;2023-05-18T17:42:14;13.90;99.90
21805;DHT22;11064;47.102;15.452;2023-05-18T17:44:40;13.80;99.90
21805;DHT22;11064;47.102;15.452;2023-05-18T17:47:06;13.70;99.90
21805;DHT22;11064;47.102;15.452;2023-05-18T17:49:32;13.60;99.90
21805;DHT22;11064;47.102;15.452;2023-05-18T17:51:58;13.60;99.90
21805;DHT22;11064;47.102;15.452;2023-05-18T17:54:24;13.30;99.90
21805;DHT22;11064;47.102;15.452;2023-05-18T17:56:51;13.20;99.90
21805;DHT22;11064;47.102;15.452;2023-05-18T17:59:17;13.00;99.90
21805;DHT22;11064;47.102;15.452;2023-05-18T18:01:42;12.90;99.90
21805;DHT22;11064;47.102;15.452;2023-05-18T18:04:08;12.70;99.90
21805;DHT22;11064;47.102;15.452;2023-05-18T18:06:34;12.60;99.90
21805;DHT22;11064;47.102;15.452;2023-05-18T18:09:01;12.40;99.90
21805;DHT22;11064;47.102;15.452;2023-05-18T18:11:27;12.30;99.90
21805;DHT22;11064;47.102;15.452;2023-05-18T18:13:53;12.20;99.90
21805;DHT22;11064;47.102;15.452;2023-05-18T18:16:20;12.00;99.90
21805;DHT22;11064;47.102;15.452;2023-05-18T18:18:46;12.00;99.90
21805;DHT22;11064;47.102;15.452;2023-05-18T18:21:12;11.80;99.90
21805;DHT22;11064;47.102;15.452;2023-05-18T18:23:39;11.70;99.90
21805;DHT22;11064;47.102;15.452;2023-05-18T18:26:05;11.50;99.90
21805;DHT22;11064;47.102;15.452;2023-05-18T18:28:32;11.40;99.90
21805;DHT22;11064;47.102;15.452;2023-05-18T18:30:58;11.20;99.90
21805;DHT22;11064;47.102;15.452;2023-05-18T18:33:25;11.10;99.90
21805;DHT22;11064;47.102;15.452;2023-05-18T18:35:52;11.00;99.90
21805;DHT22;11064;47.102;15.452;2023-05-18T18:38:18;10.90;99.90
21805;DHT22;11064;47.102;15.452;2023-05-18T18:40:44;10.80;99.90
21805;DHT22;11064;47.102;15.452;2023-05-18T18:43:10;10.70;99.90
21805;DHT22;11064;47.102;15.452;2023-05-18T18:45:36;10.60;99.90
21805;DHT22;11064;47.102;15.452;2023-05-18T18:48:02;10.60;99.90
21805;DHT22;11064;47.102;15.452;2023-05-18T18:50:28;10.50;99.90
21805;DHT22;11064;47.102;15.452;2023-05-18T18:52:54;10.50;99.90
21805;DHT22;11064;47.102;15.452;2023-05-18T18:55:20;10.40;99.90
21805;DHT22;11064;47.102;15.452;2023-05-18T18:57:48;10.40;99.90
21805;DHT22;11064;47.102;15.452;2023-05-18T19:00:14;10.40;99.90
21805;DHT22;11064;47.102;15.452;2023-05-18T19:02:41;10.50;99.90
21805;DHT22;11064;47.102;15.452;2023-05-18T19:05:08;10.50;99.90
21805;DHT22;11064;47.102;15.452;2023-05-18T19:07:34;10.60;99.90
21805;DHT22;11064;47.102;15.452;2023-05-18T19:10:01;10.60;99.90
21805;DHT22;11064;47.102;15.452;2023-05-18T19:12:27;10.50;99.90
21805;DHT22;11064;47.102;15.452;2023-05-18T19:14:53;10.50;99.90
21805;DHT22;11064;47.102;15.452;2023-05-18T19:17:19;10.40;99.90
21805;DHT22;11064;47.102;15.452;2023-05-18T19:19:45;10.40;99.90
21805;DHT22;11064;47.102;15.452;2023-05-18T19:22:11;10.50;99.90
21805;DHT22;11064;47.102;15.452;2023-05-18T19:24:39;10.50;99.90
21805;DHT22;11064;47.102;15.452;2023-05-18T19:27:05;10.50;99.90
21805;DHT22;11064;47.102;15.452;2023-05-18T19:29:31;10.50;99.90